RYR88YJ LFML-LIME
Flight info
| Callsign | RYR88YJ |
|---|---|
| Flight time | 0h 47m |
| Altitude | 32000 |
| Route | NASIK DCT PIGOS DCT EKSID DCT NOSTA DCT EGHIN DCT ITCAP/N0367F180 Q713 AMOXI DCT IBLUN DCT BEKAN |
| Aircraft | B738/M-SDE2E3FGHIRWXY/LB1 |
Departure
| Time | 2026-05-04 19:24 |
|---|---|
| Airport | Marseille Provence Airport (LFML) |
Arrival
| Time | 2026-05-04 20:11 |
|---|---|
| Airport | Il Caravaggio International Airport (LIME) |
| Time | Latitude | Longitude | Altitude | Speed | Heading |
|---|---|---|---|---|---|
| 2026-05-04 19:02 | 43.44255 | 5.21667 | 36 ft | 0 kts | 271° |
| 2026-05-04 19:19 | 43.44258 | 5.21622 | 36 ft | 9 kts | 272° |
| 2026-05-04 19:19 | 43.44231 | 5.21560 | 36 ft | 7 kts | 225° |
| 2026-05-04 19:19 | 43.44190 | 5.21505 | 36 ft | 9 kts | 223° |
| 2026-05-04 19:19 | 43.44135 | 5.21435 | 36 ft | 13 kts | 224° |
| 2026-05-04 19:20 | 43.44090 | 5.21375 | 36 ft | 12 kts | 223° |
| 2026-05-04 19:20 | 43.44082 | 5.21262 | 36 ft | 15 kts | 308° |
| 2026-05-04 19:20 | 43.44168 | 5.21136 | 36 ft | 21 kts | 314° |
| 2026-05-04 19:20 | 43.44271 | 5.20979 | 36 ft | 20 kts | 305° |
| 2026-05-04 19:21 | 43.44355 | 5.20799 | 36 ft | 25 kts | 313° |
| 2026-05-04 19:21 | 43.44483 | 5.20619 | 36 ft | 28 kts | 314° |
| 2026-05-04 19:21 | 43.44628 | 5.20413 | 36 ft | 32 kts | 314° |
| 2026-05-04 19:21 | 43.44757 | 5.20229 | 36 ft | 22 kts | 314° |
| 2026-05-04 19:22 | 43.44861 | 5.20082 | 36 ft | 21 kts | 314° |
| 2026-05-04 19:22 | 43.44944 | 5.19959 | 36 ft | 17 kts | 313° |
| 2026-05-04 19:22 | 43.44984 | 5.19872 | 36 ft | 6 kts | 268° |
| 2026-05-04 19:22 | 43.44967 | 5.19820 | 36 ft | 6 kts | 229° |
| 2026-05-04 19:23 | 43.44924 | 5.19783 | 35 ft | 9 kts | 202° |
| 2026-05-04 19:23 | 43.44875 | 5.19791 | 33 ft | 7 kts | 137° |
| 2026-05-04 19:23 | 43.44739 | 5.19985 | 33 ft | 61 kts | 134° |
| 2026-05-04 19:23 | 43.44284 | 5.20634 | 35 ft | 124 kts | 133° |
| 2026-05-04 19:24 | 43.43607 | 5.21614 | 397 ft | 149 kts | 128° |
| 2026-05-04 19:24 | 43.42897 | 5.22685 | 1162 ft | 151 kts | 130° |
| 2026-05-04 19:24 | 43.42243 | 5.23752 | 1954 ft | 144 kts | 119° |
| 2026-05-04 19:24 | 43.41947 | 5.25192 | 2251 ft | 175 kts | 95° |
| 2026-05-04 19:25 | 43.42077 | 5.26973 | 2467 ft | 200 kts | 84° |
| 2026-05-04 19:25 | 43.42344 | 5.28919 | 2749 ft | 221 kts | 83° |
| 2026-05-04 19:25 | 43.42648 | 5.31096 | 3084 ft | 240 kts | 84° |
| 2026-05-04 19:25 | 43.42963 | 5.33406 | 3664 ft | 249 kts | 83° |
| 2026-05-04 19:26 | 43.43212 | 5.35757 | 4433 ft | 249 kts | 93° |
| 2026-05-04 19:26 | 43.43158 | 5.38202 | 4933 ft | 260 kts | 98° |
| 2026-05-04 19:26 | 43.43012 | 5.40705 | 5594 ft | 264 kts | 98° |
| 2026-05-04 19:26 | 43.42855 | 5.43256 | 6219 ft | 272 kts | 99° |
| 2026-05-04 19:27 | 43.42704 | 5.45856 | 6934 ft | 272 kts | 98° |
| 2026-05-04 19:27 | 43.42558 | 5.48484 | 7559 ft | 278 kts | 98° |
| 2026-05-04 19:27 | 43.42419 | 5.51156 | 8227 ft | 281 kts | 98° |
| 2026-05-04 19:27 | 43.42278 | 5.53870 | 8838 ft | 287 kts | 97° |
| 2026-05-04 19:28 | 43.42137 | 5.56620 | 9569 ft | 289 kts | 98° |
| 2026-05-04 19:28 | 43.41996 | 5.59395 | 10246 ft | 294 kts | 98° |
| 2026-05-04 19:28 | 43.41847 | 5.62314 | 10443 ft | 317 kts | 97° |
| 2026-05-04 19:28 | 43.41687 | 5.65441 | 10633 ft | 338 kts | 97° |
| 2026-05-04 19:29 | 43.41520 | 5.68745 | 11047 ft | 350 kts | 97° |
| 2026-05-04 19:29 | 43.41350 | 5.72116 | 11692 ft | 355 kts | 97° |
| 2026-05-04 19:29 | 43.41266 | 5.75491 | 12326 ft | 362 kts | 92° |
| 2026-05-04 19:29 | 43.41364 | 5.78984 | 12995 ft | 368 kts | 89° |
| 2026-05-04 19:30 | 43.41526 | 5.82524 | 13684 ft | 374 kts | 89° |
| 2026-05-04 19:30 | 43.41695 | 5.86119 | 14335 ft | 377 kts | 89° |
| 2026-05-04 19:30 | 43.41853 | 5.89728 | 15069 ft | 379 kts | 90° |
| 2026-05-04 19:30 | 43.41997 | 5.93369 | 15777 ft | 382 kts | 90° |
| 2026-05-04 19:31 | 43.42131 | 5.97031 | 16496 ft | 384 kts | 90° |
| 2026-05-04 19:31 | 43.42258 | 6.00719 | 17211 ft | 387 kts | 90° |
| 2026-05-04 19:31 | 43.42382 | 6.04436 | 17897 ft | 390 kts | 90° |
| 2026-05-04 19:31 | 43.42505 | 6.08180 | 18524 ft | 394 kts | 90° |
| 2026-05-04 19:32 | 43.42626 | 6.11920 | 19075 ft | 398 kts | 90° |
| 2026-05-04 19:32 | 43.42749 | 6.15742 | 19612 ft | 402 kts | 90° |
| 2026-05-04 19:32 | 43.42875 | 6.19657 | 20174 ft | 406 kts | 90° |
| 2026-05-04 19:32 | 43.42996 | 6.23502 | 20713 ft | 410 kts | 90° |
| 2026-05-04 19:33 | 43.43158 | 6.27436 | 21246 ft | 415 kts | 85° |
| 2026-05-04 19:33 | 43.43703 | 6.31362 | 21786 ft | 420 kts | 79° |
| 2026-05-04 19:33 | 43.44412 | 6.35275 | 22302 ft | 424 kts | 78° |
| 2026-05-04 19:33 | 43.45170 | 6.39217 | 22812 ft | 427 kts | 77° |
| 2026-05-04 19:34 | 43.45931 | 6.43188 | 23324 ft | 431 kts | 78° |
| 2026-05-04 19:34 | 43.46682 | 6.47195 | 23802 ft | 434 kts | 78° |
| 2026-05-04 19:34 | 43.47420 | 6.51232 | 24225 ft | 437 kts | 78° |
| 2026-05-04 19:34 | 43.48150 | 6.55312 | 24626 ft | 440 kts | 79° |
| 2026-05-04 19:35 | 43.48875 | 6.59419 | 25027 ft | 443 kts | 79° |
| 2026-05-04 19:35 | 43.49598 | 6.63545 | 25422 ft | 446 kts | 79° |
| 2026-05-04 19:35 | 43.50326 | 6.67723 | 25832 ft | 449 kts | 79° |
| 2026-05-04 19:35 | 43.51055 | 6.71911 | 26204 ft | 452 kts | 79° |
| 2026-05-04 19:36 | 43.51790 | 6.76142 | 26578 ft | 455 kts | 79° |
| 2026-05-04 19:36 | 43.52521 | 6.80359 | 26930 ft | 459 kts | 79° |
| 2026-05-04 19:36 | 43.53263 | 6.84646 | 27284 ft | 462 kts | 79° |
| 2026-05-04 19:36 | 43.54010 | 6.88974 | 27630 ft | 465 kts | 79° |
| 2026-05-04 19:37 | 43.54760 | 6.93327 | 27976 ft | 468 kts | 79° |
| 2026-05-04 19:37 | 43.55513 | 6.97706 | 28296 ft | 471 kts | 79° |
| 2026-05-04 19:37 | 43.56270 | 7.02123 | 28596 ft | 475 kts | 79° |
| 2026-05-04 19:37 | 43.57030 | 7.06568 | 28909 ft | 478 kts | 79° |
| 2026-05-04 19:38 | 43.57793 | 7.11042 | 29219 ft | 481 kts | 79° |
| 2026-05-04 19:38 | 43.58559 | 7.15540 | 29628 ft | 481 kts | 79° |
| 2026-05-04 19:38 | 43.59321 | 7.20028 | 30091 ft | 480 kts | 79° |
| 2026-05-04 19:38 | 43.60080 | 7.24509 | 30441 ft | 480 kts | 79° |
| 2026-05-04 19:39 | 43.60831 | 7.28953 | 30715 ft | 482 kts | 79° |
| 2026-05-04 19:39 | 43.61640 | 7.33453 | 31005 ft | 485 kts | 75° |
| 2026-05-04 19:39 | 43.62850 | 7.37816 | 31326 ft | 487 kts | 66° |
| 2026-05-04 19:39 | 43.64506 | 7.41905 | 31679 ft | 488 kts | 56° |
| 2026-05-04 19:40 | 43.66478 | 7.45721 | 32032 ft | 488 kts | 53° |
| 2026-05-04 19:40 | 43.70549 | 7.53327 | 32063 ft | 494 kts | 54° |
| 2026-05-04 19:41 | 43.74548 | 7.61029 | 32036 ft | 488 kts | 54° |
| 2026-05-04 19:41 | 43.78445 | 7.68681 | 32061 ft | 487 kts | 55° |
| 2026-05-04 19:42 | 43.82348 | 7.76377 | 32055 ft | 488 kts | 54° |
| 2026-05-04 19:42 | 43.86278 | 7.84068 | 32068 ft | 489 kts | 54° |
| 2026-05-04 19:43 | 43.90220 | 7.91774 | 32060 ft | 490 kts | 54° |
| 2026-05-04 19:43 | 43.94129 | 7.99445 | 32064 ft | 489 kts | 54° |
| 2026-05-04 19:44 | 43.98051 | 8.07170 | 32075 ft | 488 kts | 54° |
| 2026-05-04 19:44 | 44.01954 | 8.14878 | 32078 ft | 486 kts | 54° |
| 2026-05-04 19:45 | 44.05834 | 8.22587 | 32068 ft | 486 kts | 56° |
| 2026-05-04 19:45 | 44.09390 | 8.30524 | 32076 ft | 481 kts | 59° |
| 2026-05-04 19:46 | 44.12750 | 8.38491 | 32075 ft | 476 kts | 59° |
| 2026-05-04 19:46 | 44.16105 | 8.46399 | 31757 ft | 479 kts | 59° |
| 2026-05-04 19:46 | 44.17802 | 8.50366 | 31396 ft | 473 kts | 59° |
| 2026-05-04 19:47 | 44.19481 | 8.54280 | 30966 ft | 469 kts | 59° |
| 2026-05-04 19:47 | 44.21148 | 8.58166 | 30546 ft | 465 kts | 59° |
| 2026-05-04 19:47 | 44.22796 | 8.62010 | 30111 ft | 461 kts | 59° |
| 2026-05-04 19:47 | 44.24440 | 8.65850 | 29620 ft | 458 kts | 59° |
| 2026-05-04 19:48 | 44.26062 | 8.69647 | 29162 ft | 453 kts | 59° |
| 2026-05-04 19:48 | 44.27664 | 8.73404 | 28710 ft | 448 kts | 59° |
| 2026-05-04 19:48 | 44.29251 | 8.77129 | 28278 ft | 444 kts | 59° |
| 2026-05-04 19:48 | 44.30817 | 8.80811 | 27822 ft | 440 kts | 59° |
| 2026-05-04 19:49 | 44.32373 | 8.84475 | 27381 ft | 436 kts | 60° |
| 2026-05-04 19:49 | 44.33914 | 8.88109 | 26949 ft | 433 kts | 60° |
| 2026-05-04 19:49 | 44.35440 | 8.91710 | 26517 ft | 429 kts | 60° |
| 2026-05-04 19:49 | 44.36953 | 8.95286 | 26090 ft | 426 kts | 60° |
| 2026-05-04 19:50 | 44.38457 | 8.98845 | 25654 ft | 423 kts | 60° |
| 2026-05-04 19:50 | 44.39948 | 9.02377 | 25247 ft | 420 kts | 60° |
| 2026-05-04 19:50 | 44.41426 | 9.05881 | 24823 ft | 417 kts | 60° |
| 2026-05-04 19:50 | 44.42996 | 9.09286 | 24385 ft | 416 kts | 52° |
| 2026-05-04 19:51 | 44.44819 | 9.12358 | 23971 ft | 413 kts | 49° |
| 2026-05-04 19:51 | 44.46701 | 9.15374 | 23510 ft | 411 kts | 49° |
| 2026-05-04 19:51 | 44.48597 | 9.18396 | 23026 ft | 409 kts | 49° |
| 2026-05-04 19:51 | 44.50455 | 9.21384 | 22579 ft | 405 kts | 49° |
| 2026-05-04 19:52 | 44.52292 | 9.24368 | 22157 ft | 402 kts | 49° |
| 2026-05-04 19:52 | 44.54098 | 9.27322 | 21739 ft | 399 kts | 49° |
| 2026-05-04 19:52 | 44.55894 | 9.30270 | 21327 ft | 395 kts | 49° |
| 2026-05-04 19:52 | 44.57652 | 9.33161 | 20918 ft | 393 kts | 49° |
| 2026-05-04 19:53 | 44.59418 | 9.36064 | 20517 ft | 390 kts | 49° |
| 2026-05-04 19:53 | 44.61294 | 9.38800 | 20115 ft | 387 kts | 43° |
| 2026-05-04 19:53 | 44.63260 | 9.41375 | 19709 ft | 385 kts | 41° |
| 2026-05-04 19:53 | 44.65240 | 9.43900 | 19315 ft | 383 kts | 41° |
| 2026-05-04 19:54 | 44.67210 | 9.46410 | 18907 ft | 381 kts | 41° |
| 2026-05-04 19:54 | 44.69162 | 9.48917 | 18513 ft | 379 kts | 41° |
| 2026-05-04 19:54 | 44.71093 | 9.51416 | 18054 ft | 377 kts | 42° |
| 2026-05-04 19:54 | 44.73018 | 9.53922 | 17634 ft | 374 kts | 42° |
| 2026-05-04 19:55 | 44.74894 | 9.56373 | 17223 ft | 371 kts | 42° |
| 2026-05-04 19:55 | 44.76797 | 9.58865 | 16824 ft | 368 kts | 42° |
| 2026-05-04 19:55 | 44.78640 | 9.61281 | 16432 ft | 365 kts | 42° |
| 2026-05-04 19:55 | 44.80489 | 9.63706 | 16049 ft | 362 kts | 42° |
| 2026-05-04 19:56 | 44.82326 | 9.66119 | 15667 ft | 359 kts | 42° |
| 2026-05-04 19:56 | 44.84148 | 9.68513 | 15283 ft | 357 kts | 43° |
| 2026-05-04 19:56 | 44.85996 | 9.70843 | 14902 ft | 354 kts | 36° |
| 2026-05-04 19:56 | 44.88091 | 9.72627 | 14561 ft | 349 kts | 23° |
| 2026-05-04 19:57 | 44.90348 | 9.73740 | 14333 ft | 341 kts | 14° |
| 2026-05-04 19:57 | 44.92624 | 9.74608 | 14092 ft | 337 kts | 13° |
| 2026-05-04 19:57 | 44.94877 | 9.75432 | 13815 ft | 333 kts | 13° |
| 2026-05-04 19:57 | 44.97107 | 9.76245 | 13431 ft | 331 kts | 13° |
| 2026-05-04 19:58 | 44.99337 | 9.77065 | 13036 ft | 330 kts | 14° |
| 2026-05-04 19:58 | 45.01555 | 9.77889 | 12645 ft | 329 kts | 14° |
| 2026-05-04 19:58 | 45.03765 | 9.78717 | 12281 ft | 328 kts | 14° |
| 2026-05-04 19:58 | 45.05936 | 9.79536 | 11923 ft | 326 kts | 15° |
| 2026-05-04 19:59 | 45.08124 | 9.80364 | 11574 ft | 325 kts | 15° |
| 2026-05-04 19:59 | 45.10330 | 9.81201 | 11212 ft | 323 kts | 15° |
| 2026-05-04 19:59 | 45.12475 | 9.82016 | 10825 ft | 324 kts | 15° |
| 2026-05-04 19:59 | 45.14649 | 9.82844 | 10528 ft | 321 kts | 15° |
| 2026-05-04 20:00 | 45.16784 | 9.83657 | 10315 ft | 315 kts | 15° |
| 2026-05-04 20:00 | 45.18879 | 9.84456 | 10163 ft | 307 kts | 15° |
| 2026-05-04 20:00 | 45.20921 | 9.85235 | 9972 ft | 302 kts | 15° |
| 2026-05-04 20:00 | 45.22944 | 9.86009 | 9642 ft | 301 kts | 15° |
| 2026-05-04 20:01 | 45.24961 | 9.86780 | 9397 ft | 297 kts | 15° |
| 2026-05-04 20:01 | 45.26945 | 9.87540 | 9172 ft | 293 kts | 15° |
| 2026-05-04 20:01 | 45.28874 | 9.88278 | 8957 ft | 289 kts | 15° |
| 2026-05-04 20:01 | 45.30802 | 9.89017 | 8729 ft | 285 kts | 15° |
| 2026-05-04 20:02 | 45.32683 | 9.89738 | 8492 ft | 282 kts | 15° |
| 2026-05-04 20:02 | 45.34573 | 9.90464 | 8192 ft | 281 kts | 15° |
| 2026-05-04 20:02 | 45.36466 | 9.91191 | 7855 ft | 282 kts | 15° |
| 2026-05-04 20:02 | 45.38375 | 9.91925 | 7420 ft | 287 kts | 15° |
| 2026-05-04 20:03 | 45.40325 | 9.92675 | 6980 ft | 291 kts | 15° |
| 2026-05-04 20:03 | 45.42282 | 9.93428 | 6704 ft | 289 kts | 15° |
| 2026-05-04 20:03 | 45.44203 | 9.94167 | 6538 ft | 283 kts | 15° |
| 2026-05-04 20:03 | 45.46075 | 9.94888 | 6406 ft | 275 kts | 15° |
| 2026-05-04 20:04 | 45.47898 | 9.95591 | 6279 ft | 268 kts | 15° |
| 2026-05-04 20:04 | 45.49671 | 9.96275 | 6139 ft | 261 kts | 15° |
| 2026-05-04 20:04 | 45.51405 | 9.96939 | 6020 ft | 250 kts | 15° |
| 2026-05-04 20:04 | 45.53039 | 9.97561 | 5918 ft | 237 kts | 15° |
| 2026-05-04 20:05 | 45.54574 | 9.98146 | 5807 ft | 223 kts | 15° |
| 2026-05-04 20:05 | 45.56043 | 9.98706 | 5401 ft | 222 kts | 15° |
| 2026-05-04 20:05 | 45.57526 | 9.99273 | 5027 ft | 218 kts | 15° |
| 2026-05-04 20:05 | 45.58974 | 9.99826 | 4720 ft | 210 kts | 15° |
| 2026-05-04 20:06 | 45.60372 | 10.00174 | 4547 ft | 197 kts | 352° |
| 2026-05-04 20:06 | 45.61531 | 9.99266 | 4530 ft | 201 kts | 306° |
| 2026-05-04 20:06 | 45.61999 | 9.97359 | 4309 ft | 208 kts | 276° |
| 2026-05-04 20:06 | 45.62252 | 9.95315 | 4011 ft | 209 kts | 283° |
| 2026-05-04 20:07 | 45.62614 | 9.93324 | 3743 ft | 204 kts | 285° |
| 2026-05-04 20:07 | 45.62974 | 9.91388 | 3478 ft | 199 kts | 285° |
| 2026-05-04 20:07 | 45.63206 | 9.90128 | 3299 ft | 197 kts | 285° |
| 2026-05-04 20:07 | 45.63666 | 9.87622 | 2958 ft | 197 kts | 285° |
| 2026-05-04 20:08 | 45.64008 | 9.85754 | 2698 ft | 191 kts | 285° |
| 2026-05-04 20:08 | 45.64332 | 9.83991 | 2450 ft | 176 kts | 285° |
| 2026-05-04 20:08 | 45.64631 | 9.82362 | 2252 ft | 162 kts | 285° |
| 2026-05-04 20:08 | 45.64909 | 9.80854 | 2032 ft | 154 kts | 285° |
| 2026-05-04 20:09 | 45.65088 | 9.79878 | 1885 ft | 153 kts | 285° |
| 2026-05-04 20:09 | 45.65357 | 9.78420 | 1678 ft | 151 kts | 285° |
| 2026-05-04 20:09 | 45.65621 | 9.76961 | 1477 ft | 153 kts | 284° |
| 2026-05-04 20:09 | 45.65884 | 9.75488 | 1273 ft | 151 kts | 285° |
| 2026-05-04 20:10 | 45.66153 | 9.74051 | 1080 ft | 148 kts | 285° |
| 2026-05-04 20:10 | 45.66424 | 9.72634 | 876 ft | 149 kts | 286° |
| 2026-05-04 20:10 | 45.66683 | 9.71237 | 787 ft | 135 kts | 285° |
| 2026-05-04 20:10 | 45.66869 | 9.70234 | 786 ft | 74 kts | 285° |
| 2026-05-04 20:11 | 45.66981 | 9.69635 | 786 ft | 58 kts | 285° |
| 2026-05-04 20:11 | 45.67061 | 9.69203 | 786 ft | 24 kts | 284° |
| 2026-05-04 20:11 | 45.67044 | 9.69027 | 786 ft | 13 kts | 231° |
| 2026-05-04 20:11 | 45.66969 | 9.68985 | 786 ft | 10 kts | 194° |
| 2026-05-04 20:12 | 45.66911 | 9.69022 | 786 ft | 10 kts | 112° |
| 2026-05-04 20:12 | 45.66902 | 9.69120 | 786 ft | 10 kts | 95° |
| 2026-05-04 20:12 | 45.66888 | 9.69217 | 786 ft | 10 kts | 105° |
| 2026-05-04 20:12 | 45.66868 | 9.69325 | 786 ft | 12 kts | 104° |
| 2026-05-04 20:13 | 45.66845 | 9.69448 | 786 ft | 11 kts | 105° |
| 2026-05-04 20:13 | 45.66820 | 9.69472 | 786 ft | 5 kts | 187° |
| 2026-05-04 20:13 | 45.66782 | 9.69458 | 786 ft | 6 kts | 195° |
| 2026-05-04 20:13 | 45.66762 | 9.69451 | 786 ft | 0 kts | 194° |